createdAt,value
2018-04-29T00:00:52.631Z,13.13
2018-04-29T00:03:20.147Z,14.30
2018-04-29T00:05:47.682Z,14.00
2018-04-29T00:08:15.200Z,14.00
2018-04-29T00:10:42.708Z,13.70
2018-04-29T00:13:10.214Z,13.10
2018-04-29T00:15:38.493Z,13.87
2018-04-29T00:18:06.788Z,13.87
2018-04-29T00:20:34.286Z,13.00
2018-04-29T00:23:01.819Z,14.13
2018-04-29T00:25:29.332Z,12.10
2018-04-29T00:27:56.857Z,12.20
2018-04-29T00:30:24.491Z,11.13
2018-04-29T00:32:52.771Z,11.27
2018-04-29T00:35:21.076Z,11.37
2018-04-29T00:37:48.580Z,10.80
2018-04-29T00:40:16.116Z,11.03
2018-04-29T00:42:43.643Z,11.27
2018-04-29T00:45:11.162Z,11.13
2018-04-29T00:47:38.700Z,11.83
2018-04-29T00:50:06.222Z,11.97
2018-04-29T00:52:34.494Z,11.03
2018-04-29T00:55:02.133Z,11.60
2018-04-29T00:57:29.647Z,11.10
2018-04-29T00:59:57.924Z,12.50
2018-04-29T01:02:26.210Z,12.37
2018-04-29T01:04:53.728Z,11.60
2018-04-29T01:07:21.240Z,12.07
2018-04-29T01:09:48.775Z,12.13
2018-04-29T01:12:16.283Z,12.17
2018-04-29T01:14:43.791Z,11.80
2018-04-29T01:17:11.299Z,12.00
2018-04-29T01:19:38.822Z,11.77
2018-04-29T01:22:06.371Z,11.90
2018-04-29T01:24:33.875Z,12.03
2018-04-29T01:27:02.170Z,11.07
2018-04-29T01:29:29.709Z,12.03
2018-04-29T01:31:57.982Z,11.77
2018-04-29T01:34:26.263Z,11.50
2018-04-29T01:36:54.550Z,11.57
2018-04-29T01:39:22.835Z,9.57
2018-04-29T01:41:51.147Z,11.37
2018-04-29T01:44:18.670Z,10.10
2018-04-29T01:46:46.952Z,9.67
2018-04-29T01:49:15.223Z,9.33
2018-04-29T01:51:42.736Z,9.97
2018-04-29T01:54:11.034Z,10.10
2018-04-29T01:56:38.545Z,9.43
2018-04-29T01:59:06.821Z,8.47
2018-04-29T02:01:35.118Z,8.13
2018-04-29T02:04:02.627Z,8.93
2018-04-29T02:06:30.145Z,8.33
2018-04-29T02:08:57.664Z,8.77
2018-04-29T02:11:25.164Z,8.73
2018-04-29T02:13:53.438Z,9.37
2018-04-29T02:16:21.724Z,9.93
2018-04-29T02:18:49.998Z,9.70
2018-04-29T02:21:18.316Z,10.20
2018-04-29T02:23:45.824Z,9.10
2018-04-29T02:26:13.336Z,9.30
2018-04-29T02:28:40.834Z,8.80
2018-04-29T02:31:08.340Z,7.90
2018-04-29T02:33:35.879Z,8.10
2018-04-29T02:36:03.430Z,8.33
2018-04-29T02:38:30.938Z,7.87
2018-04-29T02:40:58.476Z,8.33
2018-04-29T02:43:26.764Z,7.93
2018-04-29T02:45:55.058Z,8.13
2018-04-29T02:48:22.575Z,8.63
2018-04-29T02:50:50.079Z,8.00
2018-04-29T02:53:17.591Z,8.47
2018-04-29T02:55:45.100Z,7.57
2018-04-29T02:58:12.655Z,8.93
2018-04-29T03:00:40.925Z,8.70
2018-04-29T03:03:08.445Z,8.37
2018-04-29T03:05:35.973Z,8.73
2018-04-29T03:08:04.247Z,8.47
2018-04-29T03:10:32.519Z,8.40
2018-04-29T03:13:00.809Z,8.77
2018-04-29T03:15:29.090Z,8.53
2018-04-29T03:17:57.354Z,9.10
2018-04-29T03:20:24.904Z,8.83
2018-04-29T03:22:52.522Z,9.20
2018-04-29T03:25:20.022Z,9.90
2018-04-29T03:27:47.541Z,9.20
2018-04-29T03:30:15.051Z,8.83
2018-04-29T03:32:42.564Z,9.20
2018-04-29T03:35:10.090Z,9.17
2018-04-29T03:37:37.602Z,8.03
2018-04-29T03:40:05.106Z,8.73
2018-04-29T03:42:32.639Z,9.23
2018-04-29T03:45:00.155Z,8.43
2018-04-29T03:47:28.440Z,8.47
2018-04-29T03:49:56.744Z,8.93
2018-04-29T03:52:24.256Z,9.00
2018-04-29T03:54:51.774Z,8.57
2018-04-29T03:57:31.019Z,8.30
2018-04-29T04:00:10.371Z,10.20
2018-04-29T04:02:49.999Z,9.40
2018-04-29T04:05:17.428Z,8.83
2018-04-29T04:07:44.939Z,8.90
2018-04-29T04:10:12.444Z,8.17
2018-04-29T04:12:40.703Z,8.53
2018-04-29T04:15:08.232Z,9.03
2018-04-29T04:17:35.737Z,7.77
2018-04-29T04:20:04.018Z,7.53
2018-04-29T04:22:32.314Z,8.20
2018-04-29T04:25:00.600Z,8.30
2018-04-29T04:27:28.118Z,8.17
2018-04-29T04:29:55.646Z,7.90
2018-04-29T04:32:23.148Z,7.00
2018-04-29T04:34:50.655Z,7.47
2018-04-29T04:37:18.182Z,7.90
2018-04-29T04:39:45.700Z,8.23
2018-04-29T04:42:13.211Z,7.27
2018-04-29T04:44:40.728Z,7.57
2018-04-29T04:47:08.241Z,7.53
2018-04-29T04:49:35.777Z,7.40
2018-04-29T04:52:03.275Z,7.67
2018-04-29T04:54:31.552Z,8.03
2018-04-29T04:56:59.101Z,7.87
2018-04-29T04:59:26.598Z,7.07
2018-04-29T05:01:54.111Z,8.00
2018-04-29T05:04:21.652Z,7.20
2018-04-29T05:06:49.163Z,7.47
2018-04-29T05:09:16.675Z,7.27
2018-04-29T05:11:44.192Z,7.57
2018-04-29T05:14:12.575Z,7.43
2018-04-29T05:16:40.880Z,7.30
2018-04-29T05:19:08.393Z,7.13
2018-04-29T05:21:35.899Z,8.10
2018-04-29T05:24:04.175Z,7.27
2018-04-29T05:26:32.441Z,7.30
2018-04-29T05:29:00.749Z,7.57
2018-04-29T05:31:28.261Z,6.83
2018-04-29T05:33:55.772Z,7.13
2018-04-29T05:36:23.312Z,7.70
2018-04-29T05:38:50.822Z,7.07
2018-04-29T05:41:18.352Z,7.93
2018-04-29T05:43:46.664Z,8.10
2018-04-29T05:46:14.168Z,7.30
2018-04-29T05:48:41.673Z,7.57
2018-04-29T05:51:09.175Z,7.70
2018-04-29T05:53:36.691Z,7.73
2018-04-29T05:56:05.087Z,7.87
2018-04-29T05:58:32.592Z,6.93
2018-04-29T06:01:00.146Z,7.27
2018-04-29T06:03:28.440Z,7.27
2018-04-29T06:05:55.977Z,7.60
2018-04-29T06:08:23.510Z,8.13
2018-04-29T06:10:51.026Z,8.10
2018-04-29T06:13:18.586Z,6.90
2018-04-29T06:15:46.130Z,7.60
2018-04-29T06:18:13.647Z,8.37
2018-04-29T06:20:41.927Z,8.03
2018-04-29T06:23:10.224Z,8.30
2018-04-29T06:25:37.751Z,8.07
2018-04-29T06:28:05.275Z,7.63
2018-04-29T06:30:32.902Z,8.17
2018-04-29T06:33:01.203Z,7.57
2018-04-29T06:35:28.746Z,8.03
2018-04-29T06:37:57.056Z,7.70
2018-04-29T06:40:24.561Z,7.97
2018-04-29T06:42:52.075Z,8.13
2018-04-29T06:45:19.630Z,8.17
2018-04-29T06:47:47.147Z,7.73
2018-04-29T06:50:14.673Z,8.20
2018-04-29T06:52:42.231Z,7.60
2018-04-29T06:55:09.739Z,8.73
2018-04-29T06:57:37.271Z,8.10
2018-04-29T07:00:04.812Z,8.40
2018-04-29T07:02:32.315Z,9.13
2018-04-29T07:04:59.851Z,8.73
2018-04-29T07:07:27.411Z,8.10
2018-04-29T07:09:54.913Z,7.80
2018-04-29T07:12:22.671Z,8.07
2018-04-29T07:14:50.222Z,8.17
2018-04-29T07:17:17.744Z,7.50
2018-04-29T07:19:46.035Z,7.70
2018-04-29T07:22:14.356Z,7.57
2018-04-29T07:24:41.880Z,7.20
2018-04-29T07:27:10.180Z,7.17
2018-04-29T07:29:37.714Z,8.33
2018-04-29T07:32:06.008Z,8.43
2018-04-29T07:34:33.536Z,8.17
2018-04-29T07:37:01.077Z,8.13
2018-04-29T07:39:28.588Z,7.57
2018-04-29T07:41:56.886Z,7.83
2018-04-29T07:44:24.408Z,7.53
2018-04-29T07:46:51.977Z,7.47
2018-04-29T07:49:19.517Z,7.90
2018-04-29T07:51:47.026Z,7.90
2018-04-29T07:54:15.349Z,7.60
2018-04-29T07:56:42.901Z,7.83
2018-04-29T07:59:10.424Z,7.17
2018-04-29T08:01:38.709Z,7.87
2018-04-29T08:04:07.023Z,6.63
2018-04-29T08:06:34.532Z,7.43
2018-04-29T08:09:02.038Z,7.43
2018-04-29T08:11:29.559Z,7.00
2018-04-29T08:13:57.068Z,8.20
2018-04-29T08:16:24.643Z,8.13
2018-04-29T08:18:52.145Z,7.30
2018-04-29T08:21:19.722Z,7.07
2018-04-29T08:23:47.276Z,7.47
2018-04-29T08:26:14.797Z,6.63
2018-04-29T08:28:42.352Z,7.27
2018-04-29T08:31:09.862Z,6.47
2018-04-29T08:33:37.375Z,7.23
2018-04-29T08:36:04.903Z,7.83
2018-04-29T08:38:32.428Z,7.53
2018-04-29T08:40:59.961Z,7.07
2018-04-29T08:43:27.535Z,7.43
2018-04-29T08:45:55.058Z,7.57
2018-04-29T08:48:22.619Z,7.23
2018-04-29T08:50:50.183Z,7.80
2018-04-29T08:53:17.739Z,8.23
2018-04-29T08:55:45.259Z,8.30
2018-04-29T08:58:12.786Z,7.83
2018-04-29T09:00:41.085Z,7.33
2018-04-29T09:03:08.667Z,5.97
2018-04-29T09:05:36.200Z,7.83
2018-04-29T09:08:04.506Z,7.20
2018-04-29T09:10:32.105Z,6.73
2018-04-29T09:13:00.752Z,7.40
2018-04-29T09:15:28.460Z,6.27
2018-04-29T09:17:56.860Z,5.90
2018-04-29T09:20:25.798Z,6.90
2018-04-29T09:22:54.507Z,7.20
2018-04-29T09:25:22.033Z,6.93
2018-04-29T09:27:50.338Z,5.97
2018-04-29T09:30:17.859Z,6.67
2018-04-29T09:32:45.373Z,6.40
2018-04-29T09:35:12.900Z,6.40
2018-04-29T09:37:41.188Z,6.70
2018-04-29T09:40:09.479Z,6.70
2018-04-29T09:42:37.011Z,5.97
2018-04-29T09:45:04.528Z,5.87
2018-04-29T09:47:32.045Z,6.43
2018-04-29T09:50:00.330Z,6.27
2018-04-29T09:52:28.601Z,6.20
2018-04-29T09:54:56.248Z,6.27
2018-04-29T09:57:23.756Z,6.20
2018-04-29T09:59:51.278Z,5.87
2018-04-29T10:02:24.675Z,5.90
2018-04-29T10:04:52.186Z,5.93
2018-04-29T10:07:19.697Z,5.40
2018-04-29T10:09:47.203Z,6.33
2018-04-29T10:12:14.736Z,5.40
2018-04-29T10:14:42.248Z,5.07
2018-04-29T10:17:09.791Z,5.17
2018-04-29T10:19:37.309Z,5.47
2018-04-29T10:22:05.591Z,5.73
2018-04-29T10:24:33.167Z,5.90
2018-04-29T10:27:00.690Z,5.57
2018-04-29T10:29:28.209Z,5.33
2018-04-29T10:31:56.496Z,5.30
2018-04-29T10:34:24.767Z,5.83
2018-04-29T10:36:53.044Z,5.17
2018-04-29T10:39:20.564Z,5.70
2018-04-29T10:41:48.078Z,4.50
2018-04-29T10:44:16.367Z,6.10
2018-04-29T10:46:44.647Z,5.63
2018-04-29T10:49:13.052Z,5.17
2018-04-29T10:51:40.575Z,5.00
2018-04-29T10:54:08.090Z,5.20
2018-04-29T10:56:35.647Z,5.20
2018-04-29T10:59:03.173Z,5.00
2018-04-29T11:01:31.454Z,5.20
2018-04-29T11:03:59.747Z,5.57
2018-04-29T11:06:28.020Z,5.07
2018-04-29T11:08:56.310Z,4.70
2018-04-29T11:11:23.852Z,5.17
2018-04-29T11:13:51.360Z,6.73
2018-04-29T11:16:18.918Z,5.50
2018-04-29T11:18:46.453Z,6.13
2018-04-29T11:21:14.740Z,8.20
2018-04-29T11:23:43.052Z,13.50
2018-04-29T11:26:10.570Z,12.27
2018-04-29T11:28:38.860Z,7.27
2018-04-29T11:31:07.163Z,5.70
2018-04-29T11:33:34.684Z,5.83
2018-04-29T11:36:02.207Z,6.10
2018-04-29T11:38:29.728Z,7.13
2018-04-29T11:40:58.012Z,5.20
2018-04-29T11:43:26.372Z,6.57
2018-04-29T11:45:53.906Z,6.67
2018-04-29T11:48:21.431Z,6.87
2018-04-29T11:50:48.973Z,6.67
2018-04-29T11:53:17.289Z,6.23
2018-04-29T11:55:44.819Z,6.90
2018-04-29T11:58:12.356Z,6.17
2018-04-29T12:00:39.881Z,8.83
2018-04-29T12:03:07.657Z,6.13
2018-04-29T12:05:35.280Z,5.50
2018-04-29T12:08:03.570Z,5.23
2018-04-29T12:10:31.880Z,5.63
2018-04-29T12:12:59.407Z,6.10
2018-04-29T12:15:27.693Z,5.67
2018-04-29T12:17:56.029Z,6.10
2018-04-29T12:20:23.593Z,5.73
2018-04-29T12:22:51.162Z,5.70
2018-04-29T12:25:18.694Z,5.53
2018-04-29T12:27:46.317Z,6.07
2018-04-29T12:30:14.685Z,5.87
2018-04-29T12:32:42.216Z,5.33
2018-04-29T12:35:09.725Z,6.43
2018-04-29T12:37:37.283Z,5.87
2018-04-29T12:40:05.102Z,7.60
2018-04-29T12:42:32.733Z,6.20
2018-04-29T12:45:01.087Z,5.67
2018-04-29T12:47:29.431Z,5.53
2018-04-29T12:49:56.990Z,5.20
2018-04-29T12:52:24.573Z,5.50
2018-04-29T12:54:52.151Z,5.90
2018-04-29T12:57:19.695Z,5.50
2018-04-29T12:59:47.318Z,5.30
2018-04-29T13:02:15.596Z,6.00
2018-04-29T13:04:43.142Z,5.73
2018-04-29T13:07:10.692Z,5.97
2018-04-29T13:09:38.250Z,6.83
2018-04-29T13:12:05.788Z,5.40
2018-04-29T13:14:33.453Z,5.17
2018-04-29T13:17:00.974Z,5.03
2018-04-29T13:19:28.501Z,4.87
2018-04-29T13:21:56.011Z,5.73
2018-04-29T13:24:24.414Z,6.57
2018-04-29T13:26:51.922Z,6.33
2018-04-29T13:29:19.439Z,6.20
2018-04-29T13:31:46.981Z,6.13
2018-04-29T13:34:15.250Z,6.83
2018-04-29T13:36:42.958Z,6.33
2018-04-29T13:39:10.608Z,6.87
2018-04-29T13:41:38.906Z,6.83
2018-04-29T13:44:06.452Z,8.57
2018-04-29T13:46:34.820Z,7.27
2018-04-29T13:49:03.141Z,7.07
2018-04-29T13:51:30.656Z,8.07
2018-04-29T13:53:58.210Z,8.67
2018-04-29T13:56:25.752Z,8.77
2018-04-29T13:58:53.319Z,8.23
2018-04-29T14:01:20.820Z,7.83
2018-04-29T14:03:49.104Z,6.60
2018-04-29T14:06:17.384Z,13.47
2018-04-29T14:08:45.713Z,10.03
2018-04-29T14:11:13.239Z,9.93
2018-04-29T14:13:41.543Z,7.80
2018-04-29T14:16:09.173Z,8.00
2018-04-29T14:18:36.639Z,7.23
2018-04-29T14:21:04.936Z,6.97
2018-04-29T14:23:32.634Z,8.37
2018-04-29T14:26:00.149Z,8.27
2018-04-29T14:28:28.424Z,7.50
2018-04-29T14:30:56.732Z,7.43
2018-04-29T14:33:24.252Z,8.13
2018-04-29T14:35:51.762Z,7.63
2018-04-29T14:38:19.298Z,7.77
2018-04-29T14:40:47.576Z,7.00
2018-04-29T14:43:15.891Z,8.20
2018-04-29T14:45:43.400Z,7.50
2018-04-29T14:48:10.911Z,7.57
2018-04-29T14:50:38.464Z,8.30
2018-04-29T14:53:06.768Z,7.50
2018-04-29T14:55:34.459Z,7.23
2018-04-29T14:58:02.004Z,7.40
2018-04-29T15:00:29.515Z,6.13
2018-04-29T15:02:57.031Z,5.80
2018-04-29T15:05:25.989Z,6.00
2018-04-29T15:07:56.091Z,5.07
2018-04-29T15:10:24.533Z,3.80
2018-04-29T15:12:54.919Z,3.93
2018-04-29T15:15:24.948Z,4.50
2018-04-29T15:17:53.237Z,3.73
2018-04-29T15:20:23.411Z,4.03
2018-04-29T15:22:52.979Z,4.10
2018-04-29T15:25:24.844Z,4.43
2018-04-29T15:27:55.357Z,3.83
2018-04-29T15:30:23.746Z,3.87
2018-04-29T15:32:53.190Z,3.70
2018-04-29T15:35:21.138Z,4.30
2018-04-29T15:38:03.653Z,4.60
2018-04-29T15:40:33.595Z,4.30
2018-04-29T15:43:07.022Z,4.07
2018-04-29T15:45:34.554Z,4.87
2018-04-29T15:48:05.224Z,4.43
2018-04-29T15:50:37.581Z,4.60
2018-04-29T15:55:55.829Z,4.07
2018-04-29T16:01:06.250Z,4.40
2018-04-29T16:03:33.802Z,4.13
2018-04-29T16:08:50.843Z,4.20
2018-04-29T16:11:18.365Z,4.30
2018-04-29T16:13:55.426Z,4.17
2018-04-29T16:16:43.220Z,3.87
2018-04-29T16:19:23.522Z,3.90
2018-04-29T16:21:51.079Z,4.17
2018-04-29T16:24:18.599Z,4.30
2018-04-29T16:29:45.300Z,4.93
2018-04-29T16:32:12.830Z,5.30
2018-04-29T16:34:40.352Z,4.60
2018-04-29T16:37:07.866Z,4.40
2018-04-29T16:39:35.526Z,6.27
2018-04-29T16:42:03.107Z,5.87
2018-04-29T16:44:30.624Z,5.73
2018-04-29T16:46:58.242Z,4.57
2018-04-29T16:49:25.738Z,4.40
2018-04-29T16:51:53.245Z,4.73
2018-04-29T16:54:21.034Z,4.80
2018-04-29T16:56:48.869Z,4.63
2018-04-29T16:59:16.416Z,5.87
2018-04-29T17:01:43.967Z,6.73
2018-04-29T17:04:11.488Z,6.63
2018-04-29T17:06:38.999Z,5.73
2018-04-29T17:09:06.514Z,4.97
2018-04-29T17:11:34.032Z,7.30
2018-04-29T17:14:01.547Z,5.90
2018-04-29T17:16:29.117Z,5.93
2018-04-29T17:18:56.641Z,6.40
2018-04-29T17:21:24.151Z,5.93
2018-04-29T17:23:51.716Z,6.27
2018-04-29T17:26:19.227Z,5.50
2018-04-29T17:28:46.747Z,5.90
2018-04-29T17:31:14.319Z,6.17
2018-04-29T17:33:41.842Z,5.37
2018-04-29T17:36:09.351Z,6.07
2018-04-29T17:38:37.030Z,6.10
2018-04-29T17:41:04.546Z,5.73
2018-04-29T17:43:32.058Z,6.40
2018-04-29T17:45:59.618Z,6.50
2018-04-29T17:48:27.149Z,6.20
2018-04-29T17:50:54.659Z,5.70
2018-04-29T17:53:22.224Z,6.10
2018-04-29T17:55:49.748Z,6.17
2018-04-29T17:58:17.267Z,5.50
2018-04-29T18:00:44.868Z,5.77
2018-04-29T18:03:12.385Z,5.37
2018-04-29T18:05:39.921Z,6.00
2018-04-29T18:08:07.479Z,5.63
2018-04-29T18:10:34.998Z,5.63
2018-04-29T18:13:02.524Z,5.80
2018-04-29T18:15:30.063Z,6.13
2018-04-29T18:17:57.623Z,5.67
2018-04-29T18:20:25.161Z,5.93
2018-04-29T18:22:52.711Z,6.00
2018-04-29T18:25:20.281Z,6.23
2018-04-29T18:27:47.866Z,6.47
2018-04-29T18:30:15.383Z,5.87
2018-04-29T18:32:42.916Z,6.10
2018-04-29T18:35:10.486Z,7.73
2018-04-29T18:37:38.037Z,7.80
2018-04-29T18:40:05.699Z,7.83
2018-04-29T18:42:33.276Z,8.13
2018-04-29T18:45:00.834Z,7.70
2018-04-29T18:47:28.391Z,7.77
2018-04-29T18:49:55.941Z,8.40
2018-04-29T18:52:23.520Z,8.43
2018-04-29T18:54:51.052Z,8.40
2018-04-29T18:57:18.661Z,8.70
2018-04-29T18:59:46.232Z,7.83
2018-04-29T19:02:13.790Z,8.10
2018-04-29T19:04:41.382Z,8.57
2018-04-29T19:07:08.961Z,7.97
2018-04-29T19:09:36.493Z,7.73
2018-04-29T19:12:04.020Z,7.53
2018-04-29T19:14:31.572Z,7.40
2018-04-29T19:16:59.132Z,7.87
2018-04-29T19:19:26.727Z,8.03
2018-04-29T19:21:54.256Z,8.17
2018-04-29T19:24:21.855Z,6.60
2018-04-29T19:26:49.407Z,8.70
2018-04-29T19:29:17.002Z,7.80
2018-04-29T19:31:44.665Z,7.63
2018-04-29T19:34:12.104Z,8.20
2018-04-29T19:36:39.631Z,7.63
2018-04-29T19:39:07.160Z,7.77
2018-04-29T19:41:34.688Z,7.50
2018-04-29T19:44:02.230Z,8.40
2018-04-29T19:46:29.774Z,8.03
2018-04-29T19:48:57.305Z,8.30
2018-04-29T19:51:24.853Z,8.20
2018-04-29T19:53:52.437Z,7.90
2018-04-29T19:56:19.895Z,7.77
2018-04-29T19:58:47.431Z,8.50
2018-04-29T20:01:14.958Z,8.43
2018-04-29T20:03:42.478Z,9.30
2018-04-29T20:06:10.020Z,9.53
2018-04-29T20:08:37.554Z,8.20
2018-04-29T20:11:05.085Z,9.03
2018-04-29T20:13:32.646Z,9.27
2018-04-29T20:16:00.160Z,9.00
2018-04-29T20:18:27.863Z,9.63
2018-04-29T20:20:55.250Z,9.60
2018-04-29T20:23:22.785Z,9.50
2018-04-29T20:25:50.358Z,10.17
2018-04-29T20:28:17.903Z,8.80
2018-04-29T20:30:45.444Z,9.37
2018-04-29T20:33:13.006Z,9.60
2018-04-29T20:35:40.545Z,10.37
2018-04-29T20:38:08.089Z,9.30
2018-04-29T20:40:35.636Z,9.50
2018-04-29T20:43:03.167Z,9.93
2018-04-29T20:45:30.701Z,9.33
2018-04-29T20:47:58.287Z,10.20
2018-04-29T20:50:25.808Z,10.00
2018-04-29T20:52:53.349Z,10.40
2018-04-29T20:55:20.920Z,10.13
2018-04-29T20:57:48.425Z,9.27
2018-04-29T21:00:15.985Z,12.30
2018-04-29T21:02:43.515Z,11.70
2018-04-29T21:05:11.048Z,13.17
2018-04-29T21:07:38.666Z,12.37
2018-04-29T21:10:06.205Z,11.37
2018-04-29T21:12:33.778Z,10.33
2018-04-29T21:15:01.431Z,9.83
2018-04-29T21:17:28.983Z,10.20
2018-04-29T21:19:56.519Z,10.40
2018-04-29T21:22:24.085Z,10.90
2018-04-29T21:24:51.672Z,10.20
2018-04-29T21:27:19.211Z,10.70
2018-04-29T21:29:46.761Z,11.87
2018-04-29T21:32:14.323Z,10.77
2018-04-29T21:34:41.849Z,10.10
2018-04-29T21:37:09.412Z,12.17
2018-04-29T21:39:36.946Z,10.47
2018-04-29T21:42:04.456Z,11.47
2018-04-29T21:44:31.988Z,11.27
2018-04-29T21:46:59.525Z,10.70
2018-04-29T21:49:27.135Z,10.23
2018-04-29T21:51:54.646Z,10.80
2018-04-29T21:54:22.211Z,10.77
2018-04-29T21:56:49.870Z,10.67
2018-04-29T21:59:17.391Z,9.70
2018-04-29T22:01:44.947Z,10.90
2018-04-29T22:04:12.470Z,9.30
2018-04-29T22:06:40.014Z,10.23
2018-04-29T22:09:07.573Z,11.20
2018-04-29T22:11:35.088Z,10.37
2018-04-29T22:14:02.611Z,10.57
2018-04-29T22:16:30.169Z,9.90
2018-04-29T22:18:57.685Z,10.63
2018-04-29T22:21:25.202Z,10.37
2018-04-29T22:23:52.770Z,10.10
2018-04-29T22:26:20.302Z,9.97
2018-04-29T22:28:47.831Z,9.63
2018-04-29T22:31:15.354Z,9.83
2018-04-29T22:33:42.880Z,9.60
2018-04-29T22:36:11.528Z,9.70
2018-04-29T22:38:39.101Z,9.47
2018-04-29T22:41:06.633Z,9.30
2018-04-29T22:43:34.162Z,9.17
2018-04-29T22:46:01.684Z,9.70
2018-04-29T22:48:29.244Z,9.37
2018-04-29T22:50:56.774Z,9.83
2018-04-29T22:53:24.299Z,9.73
2018-04-29T22:55:51.822Z,9.67
2018-04-29T22:58:19.331Z,9.40
2018-04-29T23:00:46.880Z,8.83
2018-04-29T23:03:14.397Z,9.33
2018-04-29T23:05:41.916Z,8.80
2018-04-29T23:08:09.471Z,9.67
2018-04-29T23:10:36.995Z,8.93
2018-04-29T23:13:04.520Z,9.67
2018-04-29T23:15:32.063Z,9.57
2018-04-29T23:17:59.581Z,9.33
2018-04-29T23:20:27.101Z,9.03
2018-04-29T23:22:54.640Z,9.10
2018-04-29T23:25:22.161Z,9.00
2018-04-29T23:27:49.686Z,9.03
2018-04-29T23:30:17.223Z,8.77
2018-04-29T23:32:44.743Z,8.97
2018-04-29T23:35:12.276Z,9.33
2018-04-29T23:37:39.817Z,8.57
2018-04-29T23:40:07.326Z,8.77
2018-04-29T23:42:34.854Z,9.70
2018-04-29T23:45:02.413Z,9.23
2018-04-29T23:47:29.933Z,8.40
2018-04-29T23:49:57.466Z,8.73
2018-04-29T23:52:25.004Z,8.97
2018-04-29T23:54:52.514Z,9.33
2018-04-29T23:57:20.027Z,8.50
2018-04-29T23:59:47.556Z,9.27
